createdAt,value
2018-11-03T00:01:26.164Z,7.57
2018-11-03T00:03:55.222Z,7.60
2018-11-03T00:06:24.414Z,7.59
2018-11-03T00:08:53.329Z,7.54
2018-11-03T00:11:22.115Z,7.55
2018-11-03T00:13:50.461Z,7.55
2018-11-03T00:16:20.720Z,7.51
2018-11-03T00:18:49.346Z,7.54
2018-11-03T00:21:17.761Z,7.52
2018-11-03T00:23:46.159Z,7.49
2018-11-03T00:26:14.575Z,7.47
2018-11-03T00:28:43.822Z,7.50
2018-11-03T00:31:12.224Z,7.57
2018-11-03T00:33:40.586Z,7.55
2018-11-03T00:36:09.353Z,7.52
2018-11-03T00:38:38.550Z,7.55
2018-11-03T00:41:06.934Z,7.49
2018-11-03T00:43:35.329Z,7.47
2018-11-03T00:46:04.313Z,7.51
2018-11-03T00:48:32.669Z,7.51
2018-11-03T00:51:01.043Z,7.52
2018-11-03T00:53:29.376Z,7.51
2018-11-03T00:55:57.802Z,7.47
2018-11-03T00:58:26.179Z,7.52
2018-11-03T01:00:54.650Z,7.48
2018-11-03T01:03:23.067Z,7.34
2018-11-03T01:05:51.522Z,7.30
2018-11-03T01:08:19.923Z,7.24
2018-11-03T01:10:48.354Z,7.17
2018-11-03T01:13:16.748Z,7.13
2018-11-03T01:15:45.813Z,7.15
2018-11-03T01:18:14.150Z,7.26
2018-11-03T01:20:42.618Z,7.22
2018-11-03T01:23:11.071Z,7.16
2018-11-03T01:25:39.482Z,7.24
2018-11-03T01:28:07.861Z,7.25
2018-11-03T01:30:36.242Z,7.26
2018-11-03T01:33:04.748Z,7.26
2018-11-03T01:35:33.152Z,7.27
2018-11-03T01:38:01.633Z,7.28
2018-11-03T01:40:30.059Z,7.28
2018-11-03T01:42:58.642Z,7.24
2018-11-03T01:45:27.873Z,7.17
2018-11-03T01:47:56.259Z,7.22
2018-11-03T01:50:25.030Z,7.17
2018-11-03T01:52:53.485Z,7.20
2018-11-03T01:55:21.932Z,7.21
2018-11-03T01:57:50.345Z,7.16
2018-11-03T02:00:18.871Z,7.16
2018-11-03T02:02:47.544Z,7.15
2018-11-03T02:05:15.990Z,7.10
2018-11-03T02:07:44.396Z,7.01
2018-11-03T02:10:13.027Z,6.85
2018-11-03T02:12:41.794Z,6.70
2018-11-03T02:15:10.526Z,6.79
2018-11-03T02:17:39.117Z,6.78
2018-11-03T02:20:09.264Z,6.72
2018-11-03T02:22:38.168Z,6.73
2018-11-03T02:25:06.710Z,6.68
2018-11-03T02:27:35.087Z,6.57
2018-11-03T02:30:03.591Z,6.37
2018-11-03T02:32:32.155Z,6.43
2018-11-03T02:35:00.594Z,6.49
2018-11-03T02:37:28.919Z,6.53
2018-11-03T02:39:59.287Z,6.53
2018-11-03T02:42:28.422Z,6.61
2018-11-03T02:44:57.073Z,6.65
2018-11-03T02:47:25.488Z,6.67
2018-11-03T02:49:53.871Z,6.68
2018-11-03T02:52:22.298Z,6.69
2018-11-03T02:54:50.691Z,6.66
2018-11-03T02:57:19.088Z,6.70
2018-11-03T02:59:47.688Z,6.72
2018-11-03T03:02:16.144Z,6.74
2018-11-03T03:04:44.971Z,6.79
2018-11-03T03:07:13.378Z,6.79
2018-11-03T03:09:42.604Z,6.82
2018-11-03T03:12:10.978Z,6.84
2018-11-03T03:14:39.447Z,6.82
2018-11-03T03:17:07.791Z,6.78
2018-11-03T03:19:36.182Z,6.78
2018-11-03T03:22:05.111Z,6.80
2018-11-03T03:24:33.727Z,6.84
2018-11-03T03:27:02.180Z,6.85
2018-11-03T03:29:30.679Z,6.80
2018-11-03T03:31:59.069Z,6.82
2018-11-03T03:34:27.456Z,6.80
2018-11-03T03:36:55.885Z,6.80
2018-11-03T03:39:24.460Z,6.80
2018-11-03T03:41:53.013Z,6.75
2018-11-03T03:44:21.974Z,6.78
2018-11-03T03:46:51.214Z,6.76
2018-11-03T03:49:19.584Z,6.75
2018-11-03T03:51:48.066Z,6.64
2018-11-03T03:54:16.672Z,6.67
2018-11-03T03:56:45.081Z,6.64
2018-11-03T03:59:14.025Z,6.59
2018-11-03T04:01:42.473Z,6.51
2018-11-03T04:04:10.863Z,6.51
2018-11-03T04:06:40.047Z,6.47
2018-11-03T04:09:10.075Z,6.46
2018-11-03T04:11:38.595Z,6.44
2018-11-03T04:14:07.022Z,6.43
2018-11-03T04:16:35.434Z,6.29
2018-11-03T04:19:03.809Z,6.30
2018-11-03T04:21:32.254Z,6.33
2018-11-03T04:24:00.680Z,6.29
2018-11-03T04:26:30.683Z,6.23
2018-11-03T04:28:59.716Z,6.16
2018-11-03T04:31:28.631Z,6.14
2018-11-03T04:33:57.635Z,6.11
2018-11-03T04:36:26.204Z,6.07
2018-11-03T04:38:55.168Z,6.04
2018-11-03T04:41:23.613Z,6.00
2018-11-03T04:43:52.024Z,5.93
2018-11-03T04:46:20.800Z,5.87
2018-11-03T04:48:53.666Z,5.82
2018-11-03T04:51:22.254Z,5.71
2018-11-03T04:53:50.980Z,5.71
2018-11-03T04:56:19.362Z,5.69
2018-11-03T04:58:47.698Z,5.62
2018-11-03T05:01:16.134Z,5.59
2018-11-03T05:03:44.821Z,5.55
2018-11-03T05:06:13.450Z,5.57
2018-11-03T05:08:41.835Z,5.55
2018-11-03T05:11:10.201Z,5.49
2018-11-03T05:13:38.803Z,5.44
2018-11-03T05:16:07.241Z,5.43
2018-11-03T05:18:35.637Z,5.42
2018-11-03T05:21:04.427Z,5.38
2018-11-03T05:23:32.809Z,5.26
2018-11-03T05:26:01.488Z,5.27
2018-11-03T05:28:29.859Z,5.21
2018-11-03T05:30:58.928Z,5.21
2018-11-03T05:33:27.721Z,5.18
2018-11-03T05:35:56.207Z,5.09
2018-11-03T05:38:24.679Z,5.02
2018-11-03T05:40:53.102Z,4.90
2018-11-03T05:43:21.483Z,4.90
2018-11-03T05:45:49.937Z,4.87
2018-11-03T05:48:18.923Z,4.80
2018-11-03T05:50:47.382Z,4.61
2018-11-03T05:53:15.807Z,4.61
2018-11-03T05:55:44.733Z,4.68
2018-11-03T05:58:13.166Z,4.54
2018-11-03T06:00:41.578Z,4.33
2018-11-03T06:03:09.987Z,4.44
2018-11-03T06:05:38.382Z,4.50
2018-11-03T06:08:07.024Z,4.48
2018-11-03T06:10:35.441Z,4.48
2018-11-03T06:13:03.952Z,4.51
2018-11-03T06:15:32.927Z,4.49
2018-11-03T06:18:01.367Z,4.47
2018-11-03T06:20:29.849Z,4.38
2018-11-03T06:22:58.667Z,4.39
2018-11-03T06:25:27.197Z,4.44
2018-11-03T06:27:55.823Z,4.28
2018-11-03T06:30:24.223Z,4.23
2018-11-03T06:33:01.631Z,4.16
2018-11-03T06:35:31.158Z,4.18
2018-11-03T06:38:00.002Z,4.22
2018-11-03T06:40:37.320Z,4.28
2018-11-03T06:43:07.187Z,4.29
2018-11-03T06:45:35.679Z,4.27
2018-11-03T06:48:04.100Z,4.25
2018-11-03T06:50:32.423Z,4.17
2018-11-03T06:53:15.235Z,4.22
2018-11-03T06:55:44.588Z,4.14
2018-11-03T06:58:13.057Z,4.16
2018-11-03T07:00:42.441Z,4.19
2018-11-03T07:03:13.041Z,4.24
2018-11-03T07:05:41.531Z,4.24
2018-11-03T07:08:16.160Z,4.26
2018-11-03T07:10:50.407Z,4.06
2018-11-03T07:13:19.046Z,4.16
2018-11-03T07:15:47.391Z,4.16
2018-11-03T07:18:16.062Z,4.12
2018-11-03T07:20:44.469Z,4.12
2018-11-03T07:23:13.580Z,4.17
2018-11-03T07:25:45.172Z,4.25
2018-11-03T07:28:14.062Z,4.33
2018-11-03T07:30:42.553Z,4.46
2018-11-03T07:33:12.796Z,4.60
2018-11-03T07:35:43.883Z,4.79
2018-11-03T07:38:13.532Z,4.95
2018-11-03T07:40:42.052Z,5.10
2018-11-03T07:43:10.968Z,5.22
2018-11-03T07:45:39.576Z,5.52
2018-11-03T07:48:08.079Z,5.94
2018-11-03T07:50:36.907Z,6.11
2018-11-03T07:53:05.884Z,6.39
2018-11-03T07:55:34.398Z,7.00
2018-11-03T07:58:02.833Z,7.49
2018-11-03T08:00:31.315Z,7.76
2018-11-03T08:02:59.629Z,7.76
2018-11-03T08:05:28.054Z,7.54
2018-11-03T08:07:56.494Z,8.38
2018-11-03T08:10:24.899Z,9.39
2018-11-03T08:12:53.306Z,9.84
2018-11-03T08:15:21.697Z,10.06
2018-11-03T08:17:51.079Z,10.37
2018-11-03T08:20:19.873Z,10.42
2018-11-03T08:22:48.327Z,9.68
2018-11-03T08:25:17.006Z,9.28
2018-11-03T08:27:46.236Z,9.53
2018-11-03T08:30:15.063Z,9.31
2018-11-03T08:32:43.865Z,9.77
2018-11-03T08:35:13.377Z,9.61
2018-11-03T08:37:41.808Z,10.06
2018-11-03T08:40:12.330Z,10.22
2018-11-03T08:42:41.428Z,10.29
2018-11-03T08:45:10.809Z,10.44
2018-11-03T08:47:39.283Z,10.51
2018-11-03T08:50:09.578Z,11.24
2018-11-03T08:52:38.116Z,11.57
2018-11-03T08:55:08.590Z,11.15
2018-11-03T08:57:37.091Z,10.67
2018-11-03T09:00:09.911Z,10.96
2018-11-03T09:02:38.270Z,10.61
2018-11-03T09:05:06.943Z,10.96
2018-11-03T09:07:35.843Z,10.60
2018-11-03T09:10:05.320Z,10.78
2018-11-03T09:12:34.433Z,11.03
2018-11-03T09:15:02.830Z,10.83
2018-11-03T09:17:31.254Z,11.11
2018-11-03T09:19:59.771Z,11.58
2018-11-03T09:22:28.254Z,11.92
2018-11-03T09:24:56.633Z,12.38
2018-11-03T09:27:25.490Z,12.10
2018-11-03T09:29:55.166Z,12.23
2018-11-03T09:32:25.046Z,12.53
2018-11-03T09:34:54.565Z,13.40
2018-11-03T09:37:25.010Z,12.96
2018-11-03T09:39:55.521Z,12.79
2018-11-03T09:42:25.022Z,12.40
2018-11-03T09:44:54.450Z,12.92
2018-11-03T09:47:24.611Z,12.41
2018-11-03T09:49:54.980Z,11.88
2018-11-03T09:52:25.144Z,11.69
2018-11-03T09:54:54.926Z,11.75
2018-11-03T09:57:24.775Z,11.10
2018-11-03T09:59:54.767Z,10.80
2018-11-03T10:02:24.049Z,10.92
2018-11-03T10:04:58.638Z,11.03
2018-11-03T10:07:27.363Z,11.15
2018-11-03T10:09:55.931Z,11.04
2018-11-03T10:12:24.423Z,10.50
2018-11-03T10:14:52.810Z,10.50
2018-11-03T10:17:21.225Z,10.68
2018-11-03T10:19:49.633Z,10.46
2018-11-03T10:22:18.093Z,10.63
2018-11-03T10:24:46.525Z,10.68
2018-11-03T10:27:14.887Z,10.55
2018-11-03T10:29:43.276Z,10.76
2018-11-03T10:32:11.647Z,10.17
2018-11-03T10:34:40.009Z,10.07
2018-11-03T10:37:08.449Z,10.43
2018-11-03T10:39:36.887Z,10.66
2018-11-03T10:42:05.338Z,10.75
2018-11-03T10:44:33.943Z,10.73
2018-11-03T10:47:02.387Z,10.77
2018-11-03T10:49:30.866Z,10.70
2018-11-03T10:51:59.269Z,10.43
2018-11-03T10:54:27.765Z,10.48
2018-11-03T10:56:56.325Z,10.42
2018-11-03T10:59:24.804Z,10.40
2018-11-03T11:01:58.634Z,10.36
2018-11-03T11:04:32.192Z,10.29
2018-11-03T11:08:06.168Z,10.39
2018-11-03T11:10:40.986Z,10.50
2018-11-03T11:13:11.802Z,10.39
2018-11-03T11:15:40.803Z,10.61
2018-11-03T11:18:09.285Z,10.72
2018-11-03T11:20:37.711Z,10.78
2018-11-03T11:23:06.238Z,10.77
2018-11-03T11:25:34.604Z,10.63
2018-11-03T11:28:03.075Z,10.63
2018-11-03T11:30:37.633Z,10.68
2018-11-03T11:33:08.139Z,10.66
2018-11-03T11:35:37.509Z,10.88
2018-11-03T11:38:07.349Z,10.80
2018-11-03T11:40:36.026Z,10.96
2018-11-03T11:43:04.498Z,11.01
2018-11-03T11:45:33.005Z,10.95
2018-11-03T11:48:01.455Z,10.72
2018-11-03T11:50:29.856Z,11.03
2018-11-03T11:52:58.268Z,10.83
2018-11-03T11:55:26.697Z,10.85
2018-11-03T11:57:55.067Z,11.03
2018-11-03T12:00:23.502Z,10.94
2018-11-03T12:02:51.911Z,10.98
2018-11-03T12:05:20.274Z,10.89
2018-11-03T12:07:49.142Z,10.85
2018-11-03T12:10:17.713Z,10.83
2018-11-03T12:12:46.551Z,10.80
2018-11-03T12:15:15.067Z,10.76
2018-11-03T12:17:43.421Z,10.80
2018-11-03T12:20:12.207Z,10.82
2018-11-03T12:22:41.101Z,10.79
2018-11-03T12:25:10.697Z,10.67
2018-11-03T12:27:39.333Z,10.81
2018-11-03T12:30:10.029Z,10.80
2018-11-03T12:32:38.656Z,10.78
2018-11-03T12:35:07.387Z,10.89
2018-11-03T12:37:36.371Z,10.85
2018-11-03T12:40:05.068Z,10.92
2018-11-03T12:42:33.785Z,10.83
2018-11-03T12:45:02.342Z,10.84
2018-11-03T12:47:31.671Z,10.78
2018-11-03T12:50:01.252Z,10.73
2018-11-03T12:52:31.224Z,10.78
2018-11-03T12:54:59.793Z,10.72
2018-11-03T12:57:28.859Z,10.74
2018-11-03T12:59:57.361Z,10.68
2018-11-03T13:02:25.774Z,10.69
2018-11-03T13:04:54.353Z,10.62
2018-11-03T13:07:22.708Z,10.66
2018-11-03T13:09:51.596Z,10.60
2018-11-03T13:12:20.576Z,10.59
2018-11-03T13:14:48.880Z,10.58
2018-11-03T13:17:17.278Z,10.62
2018-11-03T13:19:45.773Z,10.59
2018-11-03T13:22:14.212Z,10.63
2018-11-03T13:24:42.692Z,10.58
2018-11-03T13:27:11.209Z,10.52
2018-11-03T13:29:39.757Z,10.47
2018-11-03T13:32:08.678Z,10.48
2018-11-03T13:34:37.535Z,10.51
2018-11-03T13:37:06.322Z,10.49
2018-11-03T13:39:34.790Z,10.53
2018-11-03T13:42:03.442Z,10.53
2018-11-03T13:44:31.871Z,10.52
2018-11-03T13:47:00.401Z,10.52
2018-11-03T13:49:29.128Z,10.54
2018-11-03T13:51:57.709Z,10.49
2018-11-03T13:54:26.499Z,10.51
2018-11-03T13:56:55.020Z,10.46
2018-11-03T13:59:23.531Z,10.52
2018-11-03T14:01:52.028Z,10.55
2018-11-03T14:04:20.488Z,10.48
2018-11-03T14:06:49.127Z,10.47
2018-11-03T14:09:17.665Z,10.53
2018-11-03T14:11:46.113Z,10.53
2018-11-03T14:14:14.593Z,10.47
2018-11-03T14:16:43.381Z,10.42
2018-11-03T14:19:12.048Z,10.33
2018-11-03T14:21:41.051Z,10.45
2018-11-03T14:24:09.455Z,10.43
2018-11-03T14:26:38.092Z,10.46
2018-11-03T14:29:07.469Z,10.51
2018-11-03T14:31:36.139Z,10.45
2018-11-03T14:34:05.044Z,10.51
2018-11-03T14:36:33.551Z,10.46
2018-11-03T14:39:02.598Z,10.47
2018-11-03T14:41:31.246Z,10.50
2018-11-03T14:44:00.480Z,10.46
2018-11-03T14:46:29.071Z,10.41
2018-11-03T14:48:57.610Z,10.40
2018-11-03T14:51:26.119Z,10.42
2018-11-03T14:53:54.738Z,10.43
2018-11-03T14:56:23.308Z,10.40
2018-11-03T14:58:51.770Z,10.43
2018-11-03T15:01:20.357Z,10.41
2018-11-03T15:03:49.206Z,10.37
2018-11-03T15:06:17.848Z,10.38
2018-11-03T15:08:46.439Z,10.37
2018-11-03T15:11:15.174Z,10.34
2018-11-03T15:13:43.847Z,10.29
2018-11-03T15:16:12.493Z,10.26
2018-11-03T15:18:40.983Z,10.24
2018-11-03T15:21:09.560Z,10.21
2018-11-03T15:23:38.012Z,10.14
2018-11-03T15:26:06.478Z,10.12
2018-11-03T15:28:34.918Z,9.99
2018-11-03T15:31:03.317Z,9.98
2018-11-03T15:33:31.668Z,9.90
2018-11-03T15:36:00.089Z,9.88
2018-11-03T15:38:28.623Z,9.82
2018-11-03T15:40:57.047Z,9.78
2018-11-03T15:43:25.454Z,9.68
2018-11-03T15:45:53.831Z,9.62
2018-11-03T15:48:22.279Z,9.56
2018-11-03T15:50:51.189Z,9.44
2018-11-03T15:53:20.497Z,9.27
2018-11-03T15:55:49.042Z,9.16
2018-11-03T15:58:18.663Z,9.15
2018-11-03T16:00:47.074Z,9.20
2018-11-03T16:03:16.798Z,9.14
2018-11-03T16:05:45.271Z,9.17
2018-11-03T16:08:14.387Z,9.13
2018-11-03T16:10:43.254Z,9.04
2018-11-03T16:13:12.448Z,8.93
2018-11-03T16:15:44.306Z,8.84
2018-11-03T16:18:13.347Z,8.81
2018-11-03T16:20:42.314Z,8.72
2018-11-03T16:23:11.474Z,8.68
2018-11-03T16:25:39.891Z,8.56
2018-11-03T16:28:16.332Z,8.49
2018-11-03T16:30:45.201Z,8.49
2018-11-03T16:33:13.544Z,8.43
2018-11-03T16:35:47.607Z,8.40
2018-11-03T16:38:16.564Z,8.37
2018-11-03T16:40:49.549Z,8.35
2018-11-03T16:43:18.960Z,8.32
2018-11-03T16:45:48.575Z,8.32
2018-11-03T16:48:18.524Z,8.24
2018-11-03T16:50:50.025Z,8.22
2018-11-03T16:53:21.102Z,8.19
2018-11-03T16:55:49.664Z,8.14
2018-11-03T16:58:18.266Z,8.05
2018-11-03T17:00:47.486Z,8.13
2018-11-03T17:03:16.445Z,8.04
2018-11-03T17:05:45.415Z,8.05
2018-11-03T17:08:16.696Z,8.01
2018-11-03T17:10:45.525Z,7.99
2018-11-03T17:13:13.897Z,8.02
2018-11-03T17:15:42.530Z,8.01
2018-11-03T17:18:11.313Z,8.01
2018-11-03T17:20:39.709Z,7.97
2018-11-03T17:23:08.131Z,7.98
2018-11-03T17:25:36.763Z,7.94
2018-11-03T17:28:09.023Z,7.86
2018-11-03T17:30:37.343Z,7.84
2018-11-03T17:33:06.035Z,7.77
2018-11-03T17:35:45.235Z,7.72
2018-11-03T17:38:13.619Z,7.63
2018-11-03T17:40:51.850Z,7.61
2018-11-03T17:43:20.962Z,7.61
2018-11-03T17:48:37.871Z,7.18
2018-11-03T17:51:06.761Z,6.95
2018-11-03T17:53:36.628Z,6.91
2018-11-03T17:56:06.790Z,6.87
2018-11-03T17:58:36.065Z,7.00
2018-11-03T18:01:08.358Z,6.99
2018-11-03T18:03:37.085Z,7.02
2018-11-03T18:06:05.715Z,6.86
2018-11-03T18:08:34.097Z,6.93
2018-11-03T18:11:03.765Z,6.92
2018-11-03T18:13:32.225Z,6.83
2018-11-03T18:16:01.114Z,6.67
2018-11-03T18:18:29.593Z,6.79
2018-11-03T18:21:01.529Z,6.79
2018-11-03T18:23:30.060Z,6.48
2018-11-03T18:26:00.222Z,6.41
2018-11-03T18:28:28.842Z,6.25
2018-11-03T18:30:57.351Z,6.39
2018-11-03T18:33:32.312Z,6.41
2018-11-03T18:36:00.570Z,6.48
2018-11-03T18:38:29.794Z,6.47
2018-11-03T18:40:58.169Z,6.52
2018-11-03T18:43:26.539Z,6.54
2018-11-03T18:45:54.922Z,6.52
2018-11-03T18:48:23.593Z,6.61
2018-11-03T18:50:52.595Z,6.60
2018-11-03T18:53:22.283Z,6.68
2018-11-03T18:55:51.546Z,6.70
2018-11-03T18:58:21.497Z,6.65
2018-11-03T19:00:50.057Z,6.63
2018-11-03T19:03:18.621Z,6.49
2018-11-03T19:05:47.868Z,6.42
2018-11-03T19:08:17.383Z,6.19
2018-11-03T19:10:46.171Z,6.32
2018-11-03T19:13:15.507Z,6.31
2018-11-03T19:15:44.361Z,6.37
2018-11-03T19:18:13.669Z,6.43
2018-11-03T19:20:42.443Z,6.45
2018-11-03T19:23:11.381Z,6.42
2018-11-03T19:25:40.111Z,6.46
2018-11-03T19:28:08.846Z,6.42
2018-11-03T19:30:37.837Z,6.49
2018-11-03T19:33:06.382Z,6.57
2018-11-03T19:35:35.221Z,6.60
2018-11-03T19:38:04.590Z,6.58
2018-11-03T19:40:33.189Z,6.66
2018-11-03T19:43:02.382Z,6.66
2018-11-03T19:45:30.760Z,6.70
2018-11-03T19:47:59.312Z,6.76
2018-11-03T19:50:28.145Z,6.86
2018-11-03T19:52:57.098Z,6.96
2018-11-03T19:55:25.674Z,6.98
2018-11-03T19:57:54.075Z,7.05
2018-11-03T20:00:22.794Z,7.11
2018-11-03T20:02:52.473Z,7.11
2018-11-03T20:05:21.350Z,7.14
2018-11-03T20:07:51.461Z,7.16
2018-11-03T20:10:21.013Z,7.14
2018-11-03T20:12:49.425Z,7.14
2018-11-03T20:15:18.034Z,7.14
2018-11-03T20:17:47.400Z,7.15
2018-11-03T20:20:16.098Z,7.09
2018-11-03T20:22:44.906Z,7.14
2018-11-03T20:25:14.865Z,7.15
2018-11-03T20:27:44.014Z,7.16
2018-11-03T20:30:14.715Z,7.21
2018-11-03T20:32:44.764Z,7.26
2018-11-03T20:35:14.387Z,7.29
2018-11-03T20:37:42.926Z,7.33
2018-11-03T20:40:13.181Z,7.35
2018-11-03T20:42:41.964Z,7.38
2018-11-03T20:45:10.988Z,7.37
2018-11-03T20:47:39.832Z,7.36
2018-11-03T20:50:11.170Z,7.38
2018-11-03T20:52:39.510Z,7.34
2018-11-03T20:55:08.623Z,7.33
2018-11-03T20:57:37.570Z,7.33
2018-11-03T21:00:09.924Z,7.15
2018-11-03T21:02:47.054Z,7.13
2018-11-03T21:05:15.614Z,7.12
2018-11-03T21:07:44.593Z,7.08
2018-11-03T21:10:13.067Z,7.10
2018-11-03T21:12:41.501Z,7.05
2018-11-03T21:15:09.946Z,7.05
2018-11-03T21:17:39.277Z,7.02
2018-11-03T21:20:10.508Z,6.99
2018-11-03T21:22:41.120Z,6.98
2018-11-03T21:25:10.964Z,6.91
2018-11-03T21:27:39.522Z,6.88
2018-11-03T21:30:09.895Z,6.88
2018-11-03T21:32:38.507Z,6.78
2018-11-03T21:35:06.963Z,6.83
2018-11-03T21:37:35.893Z,6.81
2018-11-03T21:40:05.396Z,6.76
2018-11-03T21:42:33.877Z,6.72
2018-11-03T21:45:03.170Z,6.66
2018-11-03T21:47:32.435Z,6.60
2018-11-03T21:50:01.264Z,6.64
2018-11-03T21:52:29.952Z,6.52
2018-11-03T21:54:58.912Z,6.52
2018-11-03T21:57:28.394Z,6.50
2018-11-03T21:59:56.758Z,6.44
2018-11-03T22:02:25.132Z,6.42
2018-11-03T22:04:53.773Z,6.34
2018-11-03T22:07:22.876Z,6.26
2018-11-03T22:09:51.219Z,6.24
2018-11-03T22:12:19.587Z,6.23
2018-11-03T22:14:48.213Z,6.26
2018-11-03T22:17:18.634Z,6.22
2018-11-03T22:19:48.138Z,6.23
2018-11-03T22:22:18.584Z,6.15
2018-11-03T22:24:46.950Z,6.17
2018-11-03T22:27:15.397Z,6.10
2018-11-03T22:29:44.148Z,6.09
2018-11-03T22:32:12.968Z,6.05
2018-11-03T22:34:41.331Z,6.01
2018-11-03T22:37:09.920Z,6.00
2018-11-03T22:39:38.579Z,6.01
2018-11-03T22:42:07.123Z,5.96
2018-11-03T22:44:35.439Z,6.01
2018-11-03T22:47:04.807Z,5.95
2018-11-03T22:49:33.579Z,5.98
2018-11-03T22:52:06.070Z,5.92
2018-11-03T22:54:35.546Z,5.92
2018-11-03T22:57:04.223Z,5.85
2018-11-03T22:59:32.562Z,5.86
2018-11-03T23:02:01.071Z,5.79
2018-11-03T23:04:29.514Z,5.66
2018-11-03T23:06:58.384Z,5.63
2018-11-03T23:09:28.306Z,5.59
2018-11-03T23:11:57.229Z,5.47
2018-11-03T23:14:26.044Z,5.47
2018-11-03T23:16:54.462Z,5.43
2018-11-03T23:19:23.099Z,5.10
2018-11-03T23:21:51.760Z,5.06
2018-11-03T23:24:20.358Z,4.95
2018-11-03T23:26:48.772Z,5.05
2018-11-03T23:29:17.286Z,5.08
2018-11-03T23:31:45.807Z,5.10
2018-11-03T23:34:15.107Z,5.05
2018-11-03T23:36:43.643Z,4.98
2018-11-03T23:39:13.141Z,4.82
2018-11-03T23:41:41.690Z,4.90
2018-11-03T23:44:10.551Z,4.79
2018-11-03T23:46:39.201Z,4.69
2018-11-03T23:49:08.066Z,4.79
2018-11-03T23:51:36.434Z,4.75
2018-11-03T23:54:05.403Z,4.84
2018-11-03T23:56:34.098Z,4.86
2018-11-03T23:59:02.804Z,4.80
